createdAt,value
2017-06-14T00:00:12.793Z,6.10
2017-06-14T00:02:41.326Z,6.77
2017-06-14T00:05:10.486Z,7.27
2017-06-14T00:07:38.871Z,8.30
2017-06-14T00:10:07.274Z,8.27
2017-06-14T00:12:35.655Z,6.60
2017-06-14T00:15:04.036Z,7.73
2017-06-14T00:17:32.445Z,7.37
2017-06-14T00:20:00.822Z,6.50
2017-06-14T00:22:29.210Z,7.90
2017-06-14T00:24:57.643Z,7.20
2017-06-14T00:27:26.028Z,7.60
2017-06-14T00:29:55.185Z,7.60
2017-06-14T00:32:23.695Z,7.57
2017-06-14T00:34:52.072Z,7.33
2017-06-14T00:37:20.457Z,6.73
2017-06-14T00:39:49.052Z,6.80
2017-06-14T00:42:18.214Z,8.70
2017-06-14T00:44:46.587Z,7.50
2017-06-14T00:47:15.081Z,7.50
2017-06-14T00:49:43.450Z,7.47
2017-06-14T00:52:11.846Z,7.50
2017-06-14T00:54:40.657Z,6.70
2017-06-14T00:57:09.818Z,6.97
2017-06-14T00:59:38.230Z,7.30
2017-06-14T01:02:07.443Z,7.47
2017-06-14T01:04:35.821Z,7.07
2017-06-14T01:07:04.192Z,7.60
2017-06-14T01:09:32.628Z,7.53
2017-06-14T01:12:01.031Z,7.00
2017-06-14T01:14:30.204Z,8.03
2017-06-14T01:16:58.589Z,7.10
2017-06-14T01:19:26.629Z,7.40
2017-06-14T01:21:55.038Z,7.97
2017-06-14T01:24:23.438Z,7.60
2017-06-14T01:26:51.834Z,7.60
2017-06-14T01:29:20.231Z,6.63
2017-06-14T01:31:48.761Z,6.77
2017-06-14T01:34:17.135Z,7.53
2017-06-14T01:36:46.952Z,8.20
2017-06-14T01:39:15.369Z,7.43
2017-06-14T01:41:44.523Z,7.40
2017-06-14T01:44:12.937Z,7.43
2017-06-14T01:46:42.392Z,7.67
2017-06-14T01:49:10.789Z,7.60
2017-06-14T01:51:39.180Z,7.60
2017-06-14T01:54:07.704Z,8.07
2017-06-14T01:56:36.136Z,9.50
2017-06-14T01:59:04.539Z,8.30
2017-06-14T02:01:32.963Z,9.67
2017-06-14T02:04:01.374Z,9.40
2017-06-14T02:06:29.792Z,9.23
2017-06-14T02:08:58.233Z,10.20
2017-06-14T02:11:26.653Z,9.30
2017-06-14T02:13:55.052Z,9.67
2017-06-14T02:16:23.449Z,9.50
2017-06-14T02:18:51.859Z,8.60
2017-06-14T02:21:21.059Z,9.60
2017-06-14T02:23:50.248Z,8.87
2017-06-14T02:26:18.646Z,9.20
2017-06-14T02:28:47.820Z,10.40
2017-06-14T02:31:16.252Z,9.30
2017-06-14T02:33:44.654Z,9.30
2017-06-14T02:36:13.066Z,9.07
2017-06-14T02:38:42.236Z,9.93
2017-06-14T02:41:10.638Z,8.83
2017-06-14T02:43:39.825Z,9.77
2017-06-14T02:46:08.228Z,8.10
2017-06-14T02:48:37.413Z,8.50
2017-06-14T02:51:05.470Z,8.70
2017-06-14T02:53:33.888Z,9.47
2017-06-14T02:56:02.293Z,11.13
2017-06-14T02:58:30.686Z,10.17
2017-06-14T03:00:59.104Z,10.80
2017-06-14T03:03:27.517Z,11.00
2017-06-14T03:05:55.926Z,10.17
2017-06-14T03:08:24.333Z,11.10
2017-06-14T03:10:53.523Z,11.00
2017-06-14T03:13:21.935Z,11.20
2017-06-14T03:15:50.326Z,12.40
2017-06-14T03:18:18.713Z,11.10
2017-06-14T03:21:03.757Z,11.60
2017-06-14T03:23:32.173Z,12.30
2017-06-14T03:26:00.603Z,13.23
2017-06-14T03:28:29.022Z,13.00
2017-06-14T03:30:58.154Z,12.43
2017-06-14T03:33:26.558Z,13.13
2017-06-14T03:35:55.006Z,12.30
2017-06-14T03:38:23.429Z,13.10
2017-06-14T03:40:51.814Z,14.23
2017-06-14T03:43:20.228Z,10.90
2017-06-14T03:45:48.627Z,13.10
2017-06-14T03:48:17.026Z,12.30
2017-06-14T03:50:46.496Z,11.47
2017-06-14T03:53:14.895Z,11.27
2017-06-14T03:55:43.289Z,11.30
2017-06-14T03:58:12.466Z,12.23
2017-06-14T04:00:40.860Z,12.13
2017-06-14T04:03:10.049Z,11.70
2017-06-14T04:05:39.216Z,11.73
2017-06-14T04:08:07.696Z,11.80
2017-06-14T04:10:36.110Z,13.17
2017-06-14T04:13:05.270Z,12.20
2017-06-14T04:15:33.737Z,13.80
2017-06-14T04:18:02.140Z,13.73
2017-06-14T04:20:30.553Z,12.40
2017-06-14T04:22:59.098Z,12.20
2017-06-14T04:25:27.592Z,12.30
2017-06-14T04:27:56.786Z,13.03
2017-06-14T04:30:25.205Z,13.63
2017-06-14T04:32:53.609Z,14.30
2017-06-14T04:35:22.079Z,12.37
2017-06-14T04:37:50.483Z,13.87
2017-06-14T04:40:18.905Z,12.70
2017-06-14T04:42:48.072Z,12.67
2017-06-14T04:45:16.461Z,14.70
2017-06-14T04:47:44.890Z,15.80
2017-06-14T04:50:13.300Z,14.57
2017-06-14T04:52:41.723Z,15.03
2017-06-14T04:55:10.889Z,14.60
2017-06-14T04:57:39.289Z,17.00
2017-06-14T05:00:07.730Z,14.40
2017-06-14T05:02:36.158Z,15.27
2017-06-14T05:05:04.584Z,16.73
2017-06-14T05:07:32.987Z,16.00
2017-06-14T05:10:01.386Z,17.33
2017-06-14T05:12:29.789Z,17.47
2017-06-14T05:14:58.185Z,17.77
2017-06-14T05:17:27.379Z,15.97
2017-06-14T05:19:56.541Z,17.07
2017-06-14T05:22:24.954Z,15.67
2017-06-14T05:24:54.131Z,14.50
2017-06-14T05:27:22.534Z,13.77
2017-06-14T05:29:51.716Z,14.13
2017-06-14T05:32:20.888Z,14.37
2017-06-14T05:34:49.289Z,14.17
2017-06-14T05:37:18.473Z,16.03
2017-06-14T05:39:46.873Z,17.10
2017-06-14T05:42:16.087Z,15.47
2017-06-14T05:44:44.498Z,17.10
2017-06-14T05:47:12.913Z,19.27
2017-06-14T05:49:41.323Z,18.77
2017-06-14T05:52:09.734Z,17.77
2017-06-14T05:54:38.174Z,19.17
2017-06-14T05:57:06.577Z,18.00
2017-06-14T05:59:34.977Z,19.30
2017-06-14T06:02:03.401Z,17.77
2017-06-14T06:04:32.571Z,16.90
2017-06-14T06:07:01.000Z,19.20
2017-06-14T06:09:29.388Z,21.40
2017-06-14T06:11:57.784Z,19.33
2017-06-14T06:14:26.203Z,18.63
2017-06-14T06:16:55.359Z,18.93
2017-06-14T06:19:23.815Z,18.07
2017-06-14T06:21:52.209Z,18.27
2017-06-14T06:24:20.625Z,17.87
2017-06-14T06:26:49.033Z,18.50
2017-06-14T06:29:18.206Z,18.37
2017-06-14T06:31:46.639Z,18.60
2017-06-14T06:34:15.036Z,17.83
2017-06-14T06:36:43.426Z,19.90
2017-06-14T06:39:11.844Z,19.30
2017-06-14T06:41:40.283Z,19.80
2017-06-14T06:44:08.704Z,19.07
2017-06-14T06:46:37.131Z,19.67
2017-06-14T06:49:05.541Z,17.30
2017-06-14T06:51:34.727Z,18.20
2017-06-14T06:54:03.130Z,17.60
2017-06-14T06:56:31.549Z,17.93
2017-06-14T06:58:59.953Z,16.60
2017-06-14T07:01:28.415Z,17.10
2017-06-14T07:03:56.836Z,17.40
2017-06-14T07:06:26.006Z,15.50
2017-06-14T07:08:54.440Z,16.60
2017-06-14T07:11:22.854Z,16.07
2017-06-14T07:13:51.253Z,15.10
2017-06-14T07:16:19.665Z,15.50
2017-06-14T07:18:48.070Z,12.90
2017-06-14T07:21:16.506Z,12.10
2017-06-14T07:23:44.910Z,13.70
2017-06-14T07:26:13.297Z,16.03
2017-06-14T07:28:41.728Z,13.70
2017-06-14T07:31:10.486Z,15.30
2017-06-14T07:33:38.906Z,13.40
2017-06-14T07:36:07.360Z,12.53
2017-06-14T07:38:35.769Z,13.70
2017-06-14T07:41:04.200Z,7.93
2017-06-14T07:43:32.594Z,11.60
2017-06-14T07:46:01.026Z,13.87
2017-06-14T07:48:29.440Z,11.40
2017-06-14T07:50:57.953Z,13.00
2017-06-14T07:53:26.362Z,9.20
2017-06-14T07:55:54.773Z,9.23
2017-06-14T07:58:23.183Z,11.50
2017-06-14T08:00:51.589Z,7.90
2017-06-14T08:03:19.975Z,9.73
2017-06-14T08:05:48.409Z,8.93
2017-06-14T08:08:16.802Z,8.70
2017-06-14T08:10:45.186Z,7.53
2017-06-14T08:13:14.366Z,6.63
2017-06-14T08:15:42.777Z,8.70
2017-06-14T08:18:11.226Z,8.87
2017-06-14T08:20:39.613Z,9.20
2017-06-14T08:23:08.778Z,8.77
2017-06-14T08:25:37.188Z,8.30
2017-06-14T08:28:05.593Z,8.27
2017-06-14T08:30:34.009Z,9.63
2017-06-14T08:33:02.415Z,10.73
2017-06-14T08:35:30.818Z,9.30
2017-06-14T08:37:59.222Z,7.27
2017-06-14T08:40:27.613Z,9.30
2017-06-14T08:42:56.043Z,9.63
2017-06-14T08:45:25.199Z,9.53
2017-06-14T08:47:54.249Z,13.37
2017-06-14T08:50:23.910Z,13.40
2017-06-14T08:52:52.324Z,10.60
2017-06-14T08:55:20.766Z,8.70
2017-06-14T08:57:49.167Z,9.07
2017-06-14T09:00:17.573Z,9.07
2017-06-14T09:02:45.973Z,8.03
2017-06-14T09:05:14.386Z,10.13
2017-06-14T09:07:42.818Z,10.90
2017-06-14T09:10:11.231Z,10.03
2017-06-14T09:12:39.638Z,8.43
2017-06-14T09:15:08.067Z,9.20
2017-06-14T09:17:36.462Z,8.90
2017-06-14T09:20:04.881Z,8.73
2017-06-14T09:22:33.257Z,9.63
2017-06-14T09:25:02.425Z,9.57
2017-06-14T09:27:30.848Z,10.43
2017-06-14T09:29:59.999Z,9.07
2017-06-14T09:32:28.411Z,7.90
2017-06-14T09:34:56.821Z,7.87
2017-06-14T09:37:25.225Z,8.90
2017-06-14T09:39:53.639Z,6.93
2017-06-14T09:42:22.017Z,9.60
2017-06-14T09:44:50.435Z,9.40
2017-06-14T09:47:18.834Z,9.83
2017-06-14T09:49:47.247Z,8.20
2017-06-14T09:52:15.635Z,8.27
2017-06-14T09:54:44.037Z,8.30
2017-06-14T09:57:12.455Z,7.90
2017-06-14T09:59:42.495Z,7.90
2017-06-14T10:02:10.887Z,7.90
2017-06-14T10:04:39.282Z,7.00
2017-06-14T10:07:08.482Z,9.00
2017-06-14T10:09:36.901Z,8.90
2017-06-14T10:12:04.945Z,8.00
2017-06-14T10:14:33.364Z,8.97
2017-06-14T10:17:01.774Z,8.60
2017-06-14T10:19:30.166Z,7.80
2017-06-14T10:21:59.322Z,7.93
2017-06-14T10:24:27.725Z,8.80
2017-06-14T10:26:56.144Z,8.50
2017-06-14T10:29:24.630Z,8.40
2017-06-14T10:31:53.025Z,8.60
2017-06-14T10:34:21.445Z,8.30
2017-06-14T10:36:49.844Z,8.00
2017-06-14T10:39:18.254Z,7.47
2017-06-14T10:41:46.658Z,6.27
2017-06-14T10:44:15.050Z,7.50
2017-06-14T10:46:43.476Z,8.37
2017-06-14T10:49:11.882Z,8.87
2017-06-14T10:51:40.278Z,7.40
2017-06-14T10:54:08.734Z,7.97
2017-06-14T10:56:37.145Z,8.60
2017-06-14T10:59:06.348Z,9.23
2017-06-14T11:01:34.772Z,7.97
2017-06-14T11:04:03.166Z,8.40
2017-06-14T11:06:31.557Z,7.77
2017-06-14T11:08:59.960Z,6.77
2017-06-14T11:11:28.380Z,7.13
2017-06-14T11:13:56.423Z,6.97
2017-06-14T11:16:25.597Z,7.50
2017-06-14T11:18:53.997Z,7.80
2017-06-14T11:21:23.178Z,9.43
2017-06-14T11:23:52.363Z,9.10
2017-06-14T11:26:20.757Z,7.17
2017-06-14T11:28:49.955Z,6.90
2017-06-14T11:31:19.110Z,7.60
2017-06-14T11:33:47.501Z,8.10
2017-06-14T11:36:15.920Z,10.03
2017-06-14T11:38:45.073Z,8.20
2017-06-14T11:41:13.464Z,8.50
2017-06-14T11:43:41.869Z,7.90
2017-06-14T11:46:10.265Z,7.93
2017-06-14T11:48:38.694Z,8.40
2017-06-14T11:51:07.081Z,7.70
2017-06-14T11:53:35.470Z,8.67
2017-06-14T11:56:03.889Z,7.50
2017-06-14T11:58:32.287Z,6.47
2017-06-14T12:01:00.768Z,6.80
2017-06-14T12:03:29.171Z,7.80
2017-06-14T12:05:57.568Z,7.60
2017-06-14T12:08:26.874Z,7.37
2017-06-14T12:10:56.039Z,8.43
2017-06-14T12:13:24.457Z,8.17
2017-06-14T12:15:52.852Z,9.00
2017-06-14T12:18:21.247Z,7.47
2017-06-14T12:20:49.672Z,7.53
2017-06-14T12:23:18.060Z,6.50
2017-06-14T12:25:47.241Z,6.90
2017-06-14T12:28:15.629Z,6.70
2017-06-14T12:30:44.784Z,5.87
2017-06-14T12:33:13.204Z,6.73
2017-06-14T12:35:42.371Z,6.90
2017-06-14T12:38:10.786Z,6.77
2017-06-14T12:40:39.181Z,7.30
2017-06-14T12:43:07.677Z,7.47
2017-06-14T12:45:36.080Z,7.47
2017-06-14T12:48:04.514Z,7.73
2017-06-14T12:50:32.921Z,6.27
2017-06-14T12:53:01.338Z,7.53
2017-06-14T12:55:29.713Z,7.53
2017-06-14T12:57:58.171Z,6.77
2017-06-14T13:00:26.579Z,7.43
2017-06-14T13:02:54.990Z,6.70
2017-06-14T13:05:23.395Z,5.80
2017-06-14T13:07:51.780Z,6.10
2017-06-14T13:10:20.187Z,5.73
2017-06-14T13:12:48.578Z,6.70
2017-06-14T13:15:16.983Z,6.43
2017-06-14T13:17:45.373Z,6.93
2017-06-14T13:20:13.746Z,7.33
2017-06-14T13:22:42.164Z,6.57
2017-06-14T13:25:10.554Z,6.33
2017-06-14T13:27:38.959Z,7.27
2017-06-14T13:30:08.129Z,7.50
2017-06-14T13:32:36.562Z,6.47
2017-06-14T13:35:04.976Z,6.70
2017-06-14T13:37:33.425Z,6.10
2017-06-14T13:40:01.845Z,5.97
2017-06-14T13:42:30.239Z,6.40
2017-06-14T13:44:58.629Z,6.07
2017-06-14T13:47:27.806Z,7.47
2017-06-14T13:49:56.216Z,6.60
2017-06-14T13:52:24.652Z,7.70
2017-06-14T13:54:53.177Z,7.30
2017-06-14T13:57:21.632Z,6.90
2017-06-14T13:59:50.054Z,6.50
2017-06-14T14:02:18.446Z,6.33
2017-06-14T14:04:46.860Z,6.03
2017-06-14T14:07:15.254Z,7.70
2017-06-14T14:09:43.450Z,6.80
2017-06-14T14:12:11.851Z,7.30
2017-06-14T14:14:40.295Z,6.13
2017-06-14T14:17:08.719Z,6.80
2017-06-14T14:19:37.123Z,5.93
2017-06-14T14:22:05.531Z,6.10
2017-06-14T14:24:33.942Z,6.13
2017-06-14T14:27:02.336Z,7.07
2017-06-14T14:29:30.739Z,6.20
2017-06-14T14:31:59.149Z,6.73
2017-06-14T14:34:27.652Z,6.40
2017-06-14T14:36:56.047Z,5.60
2017-06-14T14:39:24.437Z,5.87
2017-06-14T14:41:52.865Z,5.30
2017-06-14T14:44:21.307Z,5.80
2017-06-14T14:46:49.719Z,6.70
2017-06-14T14:49:18.129Z,5.33
2017-06-14T14:51:46.533Z,6.27
2017-06-14T14:54:14.937Z,5.40
2017-06-14T14:56:43.366Z,5.60
2017-06-14T14:59:11.761Z,5.30
2017-06-14T15:01:40.165Z,5.23
2017-06-14T15:04:08.570Z,5.43
2017-06-14T15:06:37.075Z,5.90
2017-06-14T15:09:04.862Z,6.30
2017-06-14T15:11:33.273Z,5.80
2017-06-14T15:14:01.663Z,5.83
2017-06-14T15:16:30.081Z,5.77
2017-06-14T15:18:58.470Z,5.47
2017-06-14T15:21:26.898Z,5.47
2017-06-14T15:23:55.278Z,6.57
2017-06-14T15:26:23.679Z,6.37
2017-06-14T15:28:52.088Z,5.90
2017-06-14T15:31:20.475Z,7.23
2017-06-14T15:33:49.295Z,5.50
2017-06-14T15:36:17.722Z,5.83
2017-06-14T15:38:46.155Z,4.97
2017-06-14T15:41:14.589Z,5.33
2017-06-14T15:43:43.021Z,5.77
2017-06-14T15:46:11.411Z,6.43
2017-06-14T15:48:39.810Z,5.13
2017-06-14T15:51:09.209Z,5.33
2017-06-14T15:53:37.614Z,4.53
2017-06-14T15:56:06.808Z,5.67
2017-06-14T15:58:35.232Z,5.50
2017-06-14T16:01:03.744Z,5.20
2017-06-14T16:03:32.208Z,5.20
2017-06-14T16:06:01.430Z,4.47
2017-06-14T16:08:30.381Z,5.40
2017-06-14T16:10:58.798Z,5.03
2017-06-14T16:13:27.202Z,5.50
2017-06-14T16:15:55.597Z,4.93
2017-06-14T16:18:23.996Z,5.37
2017-06-14T16:20:52.388Z,6.73
2017-06-14T16:23:20.789Z,5.00
2017-06-14T16:25:49.195Z,4.63
2017-06-14T16:28:17.597Z,4.40
2017-06-14T16:30:46.792Z,5.10
2017-06-14T16:33:15.216Z,4.37
2017-06-14T16:35:43.632Z,4.87
2017-06-14T16:38:12.024Z,4.90
2017-06-14T16:40:40.413Z,5.40
2017-06-14T16:43:08.803Z,4.80
2017-06-14T16:45:37.195Z,5.10
2017-06-14T16:48:05.613Z,4.80
2017-06-14T16:50:34.002Z,5.20
2017-06-14T16:53:02.403Z,4.60
2017-06-14T16:55:30.835Z,4.40
2017-06-14T16:57:59.242Z,4.43
2017-06-14T17:00:27.665Z,5.30
2017-06-14T17:02:56.059Z,4.77
2017-06-14T17:05:24.454Z,5.50
2017-06-14T17:07:52.874Z,4.67
2017-06-14T17:10:21.263Z,5.40
2017-06-14T17:12:49.677Z,4.80
2017-06-14T17:15:18.088Z,5.10
2017-06-14T17:17:46.505Z,4.90
2017-06-14T17:20:15.693Z,5.73
2017-06-14T17:22:44.094Z,4.73
2017-06-14T17:25:12.513Z,4.57
2017-06-14T17:27:40.901Z,4.50
2017-06-14T17:30:09.376Z,5.93
2017-06-14T17:32:37.833Z,5.20
2017-06-14T17:35:06.253Z,5.30
2017-06-14T17:37:34.697Z,4.60
2017-06-14T17:40:03.103Z,5.70
2017-06-14T17:42:31.531Z,5.73
2017-06-14T17:44:59.951Z,5.27
2017-06-14T17:47:28.369Z,5.77
2017-06-14T17:49:58.491Z,5.10
2017-06-14T17:52:27.683Z,4.60
2017-06-14T17:54:56.867Z,5.70
2017-06-14T17:57:26.082Z,5.20
2017-06-14T17:59:54.522Z,4.50
2017-06-14T18:02:22.989Z,5.87
2017-06-14T18:04:51.433Z,4.70
2017-06-14T18:07:19.922Z,5.30
2017-06-14T18:09:48.342Z,5.63
2017-06-14T18:12:16.751Z,6.03
2017-06-14T18:14:45.186Z,5.70
2017-06-14T18:17:13.621Z,5.70
2017-06-14T18:19:42.078Z,5.77
2017-06-14T18:22:10.819Z,6.03
2017-06-14T18:24:39.232Z,6.07
2017-06-14T18:27:07.666Z,6.40
2017-06-14T18:29:36.091Z,6.20
2017-06-14T18:32:04.497Z,5.87
2017-06-14T18:34:33.673Z,5.57
2017-06-14T18:37:02.849Z,5.47
2017-06-14T18:39:31.266Z,5.70
2017-06-14T18:42:00.434Z,5.90
2017-06-14T18:44:28.827Z,6.10
2017-06-14T18:46:58.026Z,5.37
2017-06-14T18:49:26.446Z,5.77
2017-06-14T18:51:54.862Z,5.37
2017-06-14T18:54:23.357Z,4.90
2017-06-14T18:56:51.756Z,5.60
2017-06-14T18:59:20.985Z,5.20
2017-06-14T19:01:49.395Z,5.67
2017-06-14T19:04:17.839Z,5.53
2017-06-14T19:06:46.257Z,5.73
2017-06-14T19:09:14.722Z,5.80
2017-06-14T19:11:43.158Z,5.47
2017-06-14T19:14:11.575Z,6.07
2017-06-14T19:16:40.014Z,5.10
2017-06-14T19:19:08.437Z,6.03
2017-06-14T19:21:36.644Z,5.90
2017-06-14T19:24:08.948Z,5.60
2017-06-14T19:26:37.177Z,7.13
2017-06-14T19:29:05.457Z,6.73
2017-06-14T19:31:33.677Z,6.23
2017-06-14T19:34:07.653Z,7.40
2017-06-14T19:36:51.601Z,7.20
2017-06-14T19:39:20.038Z,8.10
2017-06-14T19:41:49.328Z,7.07
2017-06-14T19:44:18.062Z,7.23
2017-06-14T19:46:47.817Z,6.00
2017-06-14T19:49:16.259Z,5.63
2017-06-14T19:51:45.674Z,5.80
2017-06-14T19:54:14.088Z,6.10
2017-06-14T19:56:42.512Z,5.73
2017-06-14T19:59:11.697Z,6.43
2017-06-14T20:01:40.088Z,6.70
2017-06-14T20:04:08.508Z,5.70
2017-06-14T20:06:36.914Z,6.00
2017-06-14T20:09:04.612Z,6.20
2017-06-14T20:11:33.613Z,6.70
2017-06-14T20:14:02.060Z,5.90
2017-06-14T20:16:30.500Z,7.33
2017-06-14T20:18:58.905Z,5.70
2017-06-14T20:21:27.293Z,7.10
2017-06-14T20:23:55.698Z,7.10
2017-06-14T20:26:24.073Z,6.43
2017-06-14T20:28:52.507Z,6.37
2017-06-14T20:31:20.881Z,6.93
2017-06-14T20:33:49.346Z,6.73
2017-06-14T20:36:17.759Z,7.37
2017-06-14T20:38:46.173Z,7.90
2017-06-14T20:41:14.607Z,7.23
2017-06-14T20:43:43.010Z,7.60
2017-06-14T20:46:11.428Z,9.00
2017-06-14T20:48:39.833Z,9.63
2017-06-14T20:51:08.222Z,8.07
2017-06-14T20:53:36.671Z,11.33
2017-06-14T20:56:05.085Z,11.97
2017-06-14T20:58:33.481Z,17.53
2017-06-14T21:01:02.675Z,13.03
2017-06-14T21:03:31.859Z,10.60
2017-06-14T21:06:00.278Z,9.67
2017-06-14T21:08:28.743Z,10.33
2017-06-14T21:10:57.957Z,10.00
2017-06-14T21:13:26.436Z,14.80
2017-06-14T21:15:54.849Z,19.40
2017-06-14T21:18:23.254Z,14.07
2017-06-14T21:20:51.786Z,14.20
2017-06-14T21:23:20.197Z,12.90
2017-06-14T21:25:48.615Z,12.30
2017-06-14T21:28:17.794Z,12.97
2017-06-14T21:30:47.014Z,13.90
2017-06-14T21:33:16.193Z,15.73
2017-06-14T21:35:45.379Z,20.67
2017-06-14T21:38:13.789Z,16.43
2017-06-14T21:40:43.033Z,14.80
2017-06-14T21:43:11.457Z,14.93
2017-06-14T21:45:40.625Z,16.07
2017-06-14T21:48:09.020Z,17.97
2017-06-14T21:50:38.213Z,17.47
2017-06-14T21:53:06.624Z,15.10
2017-06-14T21:55:35.027Z,14.83
2017-06-14T21:58:03.447Z,13.47
2017-06-14T22:00:31.858Z,11.97
2017-06-14T22:03:00.292Z,13.40
2017-06-14T22:05:28.727Z,10.17
2017-06-14T22:07:57.139Z,11.07
2017-06-14T22:10:25.550Z,8.87
2017-06-14T22:12:53.964Z,9.77
2017-06-14T22:15:22.367Z,8.03
2017-06-14T22:17:50.766Z,10.23
2017-06-14T22:20:19.177Z,8.27
2017-06-14T22:22:48.363Z,7.90
2017-06-14T22:25:16.749Z,7.00
2017-06-14T22:27:45.948Z,7.53
2017-06-14T22:30:15.120Z,7.53
2017-06-14T22:32:43.538Z,7.40
2017-06-14T22:35:11.955Z,9.00
2017-06-14T22:37:40.354Z,7.77
2017-06-14T22:40:08.788Z,8.63
2017-06-14T22:42:37.212Z,8.10
2017-06-14T22:45:05.612Z,8.43
2017-06-14T22:47:34.774Z,8.13
2017-06-14T22:50:03.152Z,7.30
2017-06-14T22:52:31.552Z,8.33
2017-06-14T22:54:59.945Z,6.90
2017-06-14T22:57:29.095Z,7.93
2017-06-14T22:59:57.501Z,7.77
2017-06-14T23:02:25.875Z,7.30
2017-06-14T23:04:54.281Z,5.90
2017-06-14T23:07:23.450Z,7.90
2017-06-14T23:09:51.842Z,6.83
2017-06-14T23:12:20.247Z,8.67
2017-06-14T23:14:48.650Z,9.90
2017-06-14T23:17:17.067Z,8.40
2017-06-14T23:19:45.457Z,9.83
2017-06-14T23:22:14.627Z,8.77
2017-06-14T23:24:43.025Z,10.50
2017-06-14T23:27:11.430Z,10.10
2017-06-14T23:29:39.855Z,8.97
2017-06-14T23:32:08.269Z,8.63
2017-06-14T23:34:36.677Z,9.47
2017-06-14T23:37:05.086Z,9.07
2017-06-14T23:39:33.487Z,9.07
2017-06-14T23:42:01.890Z,9.50
2017-06-14T23:44:31.061Z,8.37
2017-06-14T23:46:59.453Z,9.10
2017-06-14T23:49:27.853Z,9.63
2017-06-14T23:51:56.245Z,9.43
2017-06-14T23:54:24.678Z,8.83
2017-06-14T23:56:53.069Z,9.93
2017-06-14T23:59:21.487Z,9.47
